createdAt,value
2023-04-26T00:01:38.409Z,10.66
2023-04-26T00:05:51.598Z,10.44
2023-04-26T00:10:08.748Z,10.54
2023-04-26T00:14:22.519Z,10.36
2023-04-26T00:18:34.985Z,10.30
2023-04-26T00:22:47.761Z,10.35
2023-04-26T00:27:00.994Z,10.36
2023-04-26T00:31:17.920Z,10.19
2023-04-26T00:35:31.101Z,10.47
2023-04-26T00:39:43.373Z,10.18
2023-04-26T00:43:56.107Z,9.96
2023-04-26T00:48:08.716Z,10.01
2023-04-26T00:52:22.038Z,10.26
2023-04-26T00:56:35.203Z,10.34
2023-04-26T01:00:47.738Z,10.29
2023-04-26T01:05:00.165Z,10.26
2023-04-26T01:09:16.120Z,10.34
2023-04-26T01:13:30.034Z,10.25
2023-04-26T01:17:44.774Z,10.09
2023-04-26T01:21:58.409Z,10.10
2023-04-26T01:26:11.154Z,10.20
2023-04-26T01:30:23.533Z,10.44
2023-04-26T01:34:36.088Z,10.20
2023-04-26T01:38:48.460Z,10.17
2023-04-26T01:43:03.458Z,10.38
2023-04-26T01:47:17.079Z,10.17
2023-04-26T01:51:30.915Z,10.04
2023-04-26T01:55:44.032Z,10.29
2023-04-26T01:59:58.516Z,10.27
2023-04-26T02:04:12.125Z,10.47
2023-04-26T02:08:24.454Z,10.36
2023-04-26T02:12:36.863Z,10.53
2023-04-26T02:16:49.507Z,10.75
2023-04-26T02:21:01.866Z,10.72
2023-04-26T02:25:17.408Z,10.92
2023-04-26T02:33:48.532Z,10.62
2023-04-26T02:38:00.966Z,10.63
2023-04-26T02:42:13.402Z,10.73
2023-04-26T02:46:27.668Z,10.65
2023-04-26T02:50:40.063Z,10.57
2023-04-26T02:54:52.468Z,10.46
2023-04-26T02:59:04.865Z,10.45
2023-04-26T03:03:17.570Z,10.29
2023-04-26T03:07:31.878Z,10.47
2023-04-26T03:11:44.375Z,10.41
2023-04-26T03:15:57.024Z,10.46
2023-04-26T03:20:11.163Z,10.63
2023-04-26T03:24:24.011Z,10.87
2023-04-26T03:28:36.485Z,10.83
2023-04-26T03:32:49.181Z,10.66
2023-04-26T03:37:03.560Z,10.66
2023-04-26T03:41:17.154Z,10.57
2023-04-26T03:45:29.528Z,10.54
2023-04-26T03:49:42.883Z,10.61
2023-04-26T03:53:56.194Z,10.75
2023-04-26T03:58:09.058Z,10.75
2023-04-26T04:02:22.178Z,10.75
2023-04-26T04:06:38.616Z,10.79
2023-04-26T04:10:51.339Z,10.77
2023-04-26T04:15:03.874Z,10.84
2023-04-26T04:19:17.175Z,10.87
2023-04-26T04:23:29.920Z,10.89
2023-04-26T04:27:43.806Z,10.96
2023-04-26T04:31:56.875Z,11.01
2023-04-26T04:36:10.126Z,11.06
2023-04-26T04:40:23.037Z,11.21
2023-04-26T04:44:35.641Z,11.20
2023-04-26T04:48:48.898Z,11.28
2023-04-26T04:53:01.333Z,11.43
2023-04-26T04:57:14.222Z,11.45
2023-04-26T05:01:27.049Z,11.37
2023-04-26T05:05:42.427Z,11.42
2023-04-26T05:09:54.853Z,11.69
2023-04-26T05:14:07.468Z,11.82
2023-04-26T05:18:19.834Z,11.81
2023-04-26T05:22:32.426Z,11.88
2023-04-26T05:26:44.818Z,12.02
2023-04-26T05:31:18.154Z,12.11
2023-04-26T05:36:00.113Z,12.47
2023-04-26T05:40:13.929Z,12.83
2023-04-26T05:44:26.397Z,12.98
2023-04-26T05:48:40.107Z,13.26
2023-04-26T05:52:52.628Z,13.28
2023-04-26T05:57:06.481Z,13.44
2023-04-26T06:01:19.156Z,13.67
2023-04-26T06:05:32.496Z,13.68
2023-04-26T06:09:44.950Z,13.60
2023-04-26T06:13:57.303Z,13.68
2023-04-26T06:18:11.035Z,14.16
2023-04-26T06:22:23.485Z,14.30
2023-04-26T06:26:36.172Z,14.37
2023-04-26T06:30:49.589Z,14.68
2023-04-26T06:35:02.238Z,14.38
2023-04-26T06:39:14.682Z,14.50
2023-04-26T06:43:28.612Z,14.62
2023-04-26T06:47:48.003Z,15.26
2023-04-26T06:52:00.355Z,15.55
2023-04-26T06:56:12.842Z,15.18
2023-04-26T07:00:25.368Z,14.66
2023-04-26T07:04:38.067Z,15.17
2023-04-26T07:08:51.720Z,16.56
2023-04-26T07:13:04.212Z,15.91
2023-04-26T07:17:16.957Z,15.84
2023-04-26T07:21:31.039Z,14.90
2023-04-26T07:25:43.699Z,15.13
2023-04-26T07:29:58.890Z,16.43
2023-04-26T07:34:11.351Z,14.82
2023-04-26T07:38:24.176Z,15.24
2023-04-26T07:42:36.589Z,14.42
2023-04-26T07:46:49.000Z,14.83
2023-04-26T07:51:09.414Z,15.60
2023-04-26T07:55:22.103Z,16.29
2023-04-26T07:59:34.510Z,16.14
2023-04-26T08:03:47.888Z,14.98
2023-04-26T08:08:01.970Z,14.87
2023-04-26T08:12:14.563Z,16.35
2023-04-26T08:16:27.019Z,16.06
2023-04-26T08:20:39.815Z,15.93
2023-04-26T08:24:55.255Z,16.15
2023-04-26T08:29:07.962Z,16.03
2023-04-26T08:33:20.392Z,17.07
2023-04-26T08:37:33.031Z,17.32
2023-04-26T08:41:50.452Z,17.01
2023-04-26T08:46:04.752Z,17.06
2023-04-26T08:50:20.747Z,16.99
2023-04-26T08:54:33.458Z,17.57
2023-04-26T08:58:46.072Z,17.81
2023-04-26T09:02:58.559Z,18.64
2023-04-26T09:07:19.045Z,18.77
2023-04-26T09:11:31.525Z,18.02
2023-04-26T09:15:43.910Z,17.64
2023-04-26T09:19:57.022Z,18.02
2023-04-26T09:24:09.569Z,17.57
2023-04-26T09:28:23.995Z,18.14
2023-04-26T09:32:56.133Z,18.53
2023-04-26T09:37:14.608Z,19.28
2023-04-26T09:41:43.557Z,19.40
2023-04-26T09:45:58.630Z,20.72
2023-04-26T09:50:11.258Z,19.68
2023-04-26T09:54:42.453Z,19.71
2023-04-26T09:59:00.953Z,19.34
2023-04-26T10:03:14.358Z,18.98
2023-04-26T10:07:27.652Z,18.44
2023-04-26T10:11:40.502Z,19.65
2023-04-26T10:15:54.169Z,19.80
2023-04-26T10:20:11.487Z,18.85
2023-04-26T10:24:24.750Z,19.02
2023-04-26T10:28:46.535Z,18.57
2023-04-26T10:32:58.833Z,20.05
2023-04-26T10:37:16.465Z,19.80
2023-04-26T10:41:32.802Z,19.36
2023-04-26T10:45:46.857Z,19.20
2023-04-26T10:50:10.589Z,19.69
2023-04-26T10:54:24.560Z,20.48
2023-04-26T10:58:41.995Z,19.19
2023-04-26T11:02:58.295Z,19.34
2023-04-26T11:07:14.507Z,18.64
2023-04-26T11:11:33.100Z,19.43
2023-04-26T11:15:46.790Z,19.15
2023-04-26T11:19:59.179Z,21.00
2023-04-26T11:24:11.666Z,21.20
2023-04-26T11:28:24.221Z,20.14
2023-04-26T11:32:37.889Z,19.89
2023-04-26T11:36:51.992Z,19.95
2023-04-26T11:41:04.731Z,20.01
2023-04-26T11:45:17.258Z,19.87
2023-04-26T11:49:30.845Z,19.60
2023-04-26T11:53:43.847Z,19.71
2023-04-26T11:57:57.564Z,19.37
2023-04-26T12:02:13.611Z,19.30
2023-04-26T12:06:42.207Z,19.98
2023-04-26T12:10:54.859Z,20.49
2023-04-26T12:15:15.157Z,19.82
2023-04-26T12:19:28.374Z,20.35
2023-04-26T12:23:42.096Z,18.81
2023-04-26T12:27:55.230Z,19.08
2023-04-26T12:32:07.743Z,19.68
2023-04-26T12:36:20.125Z,19.05
2023-04-26T12:40:32.702Z,19.67
2023-04-26T12:44:45.149Z,20.11
2023-04-26T12:48:57.592Z,20.67
2023-04-26T12:53:11.750Z,20.12
2023-04-26T12:57:24.724Z,20.40
2023-04-26T13:01:37.344Z,20.00
2023-04-26T13:05:49.906Z,20.20
2023-04-26T13:10:02.892Z,20.00
2023-04-26T13:14:15.336Z,20.14
2023-04-26T13:18:27.813Z,19.44
2023-04-26T13:22:42.737Z,19.37
2023-04-26T13:26:55.680Z,19.84
2023-04-26T13:31:08.297Z,19.67
2023-04-26T13:35:21.158Z,19.58
2023-04-26T13:39:33.450Z,19.34
2023-04-26T13:43:45.888Z,19.26
2023-04-26T13:47:58.295Z,19.58
2023-04-26T13:52:12.240Z,19.34
2023-04-26T13:56:26.175Z,19.15
2023-04-26T14:00:38.615Z,19.27
2023-04-26T14:04:51.158Z,19.28
2023-04-26T14:09:05.856Z,19.41
2023-04-26T14:13:18.793Z,18.98
2023-04-26T14:17:32.680Z,19.10
2023-04-26T14:21:45.206Z,18.93
2023-04-26T14:25:57.496Z,18.41
2023-04-26T14:30:10.068Z,18.81
2023-04-26T14:34:23.882Z,18.42
2023-04-26T14:38:36.741Z,18.50
2023-04-26T14:42:49.229Z,18.36
2023-04-26T14:47:01.899Z,17.91
2023-04-26T14:51:14.351Z,17.92
2023-04-26T14:55:27.425Z,18.00
2023-04-26T14:59:39.940Z,17.99
2023-04-26T15:03:52.436Z,18.07
2023-04-26T15:08:05.234Z,17.72
2023-04-26T15:12:17.613Z,18.07
2023-04-26T15:16:30.114Z,17.70
2023-04-26T15:20:42.606Z,17.52
2023-04-26T15:24:54.935Z,17.45
2023-04-26T15:29:07.426Z,17.21
2023-04-26T15:33:20.269Z,17.04
2023-04-26T15:37:32.765Z,16.48
2023-04-26T15:41:45.625Z,17.15
2023-04-26T15:45:58.069Z,17.06
2023-04-26T15:50:10.893Z,16.75
2023-04-26T15:54:24.623Z,16.26
2023-04-26T15:58:39.350Z,16.03
2023-04-26T16:02:53.555Z,15.95
2023-04-26T16:07:08.310Z,15.80
2023-04-26T16:11:22.013Z,15.73
2023-04-26T16:15:34.440Z,15.93
2023-04-26T16:19:47.024Z,15.90
2023-04-26T16:24:00.482Z,15.99
2023-04-26T16:28:12.950Z,15.61
2023-04-26T16:32:26.575Z,15.50
2023-04-26T16:36:38.854Z,15.37
2023-04-26T16:40:58.107Z,15.39
2023-04-26T16:45:16.292Z,15.01
2023-04-26T16:49:29.078Z,14.70
2023-04-26T16:53:41.514Z,14.33
2023-04-26T16:57:53.864Z,14.87
2023-04-26T17:02:07.100Z,15.16
2023-04-26T17:06:20.043Z,15.28
2023-04-26T17:10:34.087Z,15.33
2023-04-26T17:14:46.573Z,15.30
2023-04-26T17:18:58.928Z,15.28
2023-04-26T17:23:12.024Z,15.16
2023-04-26T17:27:25.945Z,15.12
2023-04-26T17:31:39.021Z,15.10
2023-04-26T17:35:51.629Z,14.93
2023-04-26T17:40:08.150Z,14.86
2023-04-26T17:44:20.486Z,14.89
2023-04-26T17:48:33.130Z,14.83
2023-04-26T17:52:45.818Z,14.93
2023-04-26T17:56:58.753Z,14.87
2023-04-26T18:01:11.214Z,14.58
2023-04-26T18:05:24.791Z,14.48
2023-04-26T18:09:37.233Z,14.41
2023-04-26T18:13:49.625Z,14.43
2023-04-26T18:18:05.726Z,14.42
2023-04-26T18:22:18.120Z,14.27
2023-04-26T18:26:30.489Z,14.16
2023-04-26T18:30:42.829Z,14.04
2023-04-26T18:34:55.265Z,13.81
2023-04-26T18:39:08.256Z,13.69
2023-04-26T18:43:20.791Z,13.42
2023-04-26T18:47:33.267Z,13.20
2023-04-26T18:51:46.060Z,13.34
2023-04-26T18:55:58.396Z,13.33
2023-04-26T19:00:12.083Z,13.10
2023-04-26T19:04:24.660Z,13.07
2023-04-26T19:08:37.362Z,12.99
2023-04-26T19:12:49.713Z,12.92
2023-04-26T19:17:02.438Z,12.85
2023-04-26T19:21:14.747Z,12.78
2023-04-26T19:25:27.562Z,12.81
2023-04-26T19:29:39.912Z,12.81
2023-04-26T19:33:52.773Z,12.76
2023-04-26T19:38:07.032Z,12.72
2023-04-26T19:42:19.310Z,12.73
2023-04-26T19:46:31.998Z,12.66
2023-04-26T19:50:46.488Z,12.74
2023-04-26T19:54:58.995Z,12.63
2023-04-26T19:59:14.024Z,12.60
2023-04-26T20:03:26.767Z,12.50
2023-04-26T20:07:39.094Z,12.23
2023-04-26T20:11:52.201Z,12.15
2023-04-26T20:16:04.962Z,12.15
2023-04-26T20:20:17.312Z,12.16
2023-04-26T20:24:30.593Z,12.24
2023-04-26T20:28:42.948Z,12.11
2023-04-26T20:32:55.402Z,11.88
2023-04-26T20:37:07.866Z,11.81
2023-04-26T20:41:20.258Z,11.71
2023-04-26T20:45:32.676Z,11.76
2023-04-26T20:49:45.046Z,11.78
2023-04-26T20:53:57.353Z,11.63
2023-04-26T20:58:09.791Z,11.58
2023-04-26T21:02:22.289Z,11.59
2023-04-26T21:06:34.745Z,11.21
2023-04-26T21:10:47.192Z,11.05
2023-04-26T21:14:59.511Z,11.16
2023-04-26T21:19:11.994Z,11.07
2023-04-26T21:23:24.461Z,10.75
2023-04-26T21:27:36.861Z,10.57
2023-04-26T21:31:49.236Z,10.52
2023-04-26T21:36:01.663Z,10.49
2023-04-26T21:40:14.219Z,10.80
2023-04-26T21:44:26.636Z,10.98
2023-04-26T21:48:41.745Z,11.14
2023-04-26T21:52:54.052Z,10.81
2023-04-26T21:57:07.188Z,10.58
2023-04-26T22:01:19.673Z,11.13
2023-04-26T22:05:32.215Z,10.69
2023-04-26T22:09:44.608Z,10.44
2023-04-26T22:13:57.050Z,10.23
2023-04-26T22:18:09.859Z,10.07
2023-04-26T22:22:22.284Z,9.88
2023-04-26T22:26:34.625Z,10.00
2023-04-26T22:30:47.048Z,10.59
2023-04-26T22:34:59.489Z,10.60
2023-04-26T22:39:12.481Z,10.16
2023-04-26T22:43:25.140Z,9.94
2023-04-26T22:47:37.728Z,10.34
2023-04-26T22:52:01.966Z,9.98
2023-04-26T22:56:19.915Z,9.82
2023-04-26T23:00:32.321Z,9.88
2023-04-26T23:04:44.821Z,9.91
2023-04-26T23:08:57.334Z,9.59
2023-04-26T23:13:10.109Z,9.55
2023-04-26T23:17:22.765Z,9.36
2023-04-26T23:21:35.099Z,9.83
2023-04-26T23:25:47.456Z,10.12
2023-04-26T23:29:59.967Z,9.68
2023-04-26T23:34:12.352Z,9.43
2023-04-26T23:38:24.772Z,9.50
2023-04-26T23:42:37.294Z,9.27
2023-04-26T23:46:49.714Z,9.53
2023-04-26T23:51:02.138Z,10.17
2023-04-26T23:55:14.468Z,10.14
2023-04-26T23:59:27.761Z,9.76
